createdAt,value
2019-05-03T00:00:09.439Z,1.20
2019-05-03T00:01:42.032Z,1.10
2019-05-03T00:03:14.584Z,1.13
2019-05-03T00:04:47.131Z,1.10
2019-05-03T00:06:19.612Z,1.00
2019-05-03T00:07:52.615Z,1.10
2019-05-03T00:09:25.919Z,1.30
2019-05-03T00:10:58.360Z,1.00
2019-05-03T00:12:32.258Z,0.90
2019-05-03T00:14:06.420Z,0.90
2019-05-03T00:15:38.764Z,1.17
2019-05-03T00:17:11.717Z,0.80
2019-05-03T00:18:44.552Z,0.87
2019-05-03T00:20:16.888Z,0.70
2019-05-03T00:21:49.311Z,0.77
2019-05-03T00:23:22.916Z,1.00
2019-05-03T00:25:04.950Z,0.67
2019-05-03T00:26:31.704Z,0.70
2019-05-03T00:28:03.713Z,0.80
2019-05-03T00:29:36.044Z,0.87
2019-05-03T00:31:08.521Z,0.60
2019-05-03T00:32:42.613Z,0.67
2019-05-03T00:34:14.883Z,1.07
2019-05-03T00:35:47.305Z,0.80
2019-05-03T00:37:19.719Z,0.60
2019-05-03T00:38:52.489Z,0.80
2019-05-03T00:40:25.028Z,0.70
2019-05-03T00:41:57.532Z,0.90
2019-05-03T00:45:42.115Z,0.67
2019-05-03T00:47:14.142Z,0.80
2019-05-03T00:48:46.553Z,0.90
2019-05-03T00:50:19.024Z,0.70
2019-05-03T00:52:11.688Z,0.70
2019-05-03T00:53:44.289Z,0.70
2019-05-03T00:55:19.174Z,0.80
2019-05-03T00:56:52.223Z,0.90
2019-05-03T00:58:43.022Z,0.80
2019-05-03T01:00:28.168Z,1.17
2019-05-03T01:02:02.538Z,0.73
2019-05-03T01:03:34.703Z,0.93
2019-05-03T01:05:07.093Z,0.90
2019-05-03T01:06:58.195Z,0.90
2019-05-03T01:08:48.821Z,1.17
2019-05-03T01:10:42.045Z,1.00
2019-05-03T01:12:17.413Z,1.10
2019-05-03T01:13:51.980Z,1.23
2019-05-03T01:15:23.853Z,1.10
2019-05-03T01:16:56.187Z,0.90
2019-05-03T01:18:28.659Z,1.20
2019-05-03T01:20:02.821Z,1.00
2019-05-03T01:21:35.083Z,1.07
2019-05-03T01:23:07.450Z,1.13
2019-05-03T01:24:39.859Z,1.20
2019-05-03T01:26:12.212Z,1.00
2019-05-03T01:27:44.695Z,1.10
2019-05-03T01:29:17.095Z,1.00
2019-05-03T01:30:49.428Z,1.10
2019-05-03T01:32:22.300Z,0.80
2019-05-03T01:33:55.023Z,0.90
2019-05-03T01:35:27.348Z,1.10
2019-05-03T01:36:59.727Z,1.00
2019-05-03T01:38:32.164Z,1.00
2019-05-03T01:40:04.561Z,0.77
2019-05-03T01:41:36.955Z,0.97
2019-05-03T01:43:09.379Z,0.97
2019-05-03T01:44:42.708Z,0.90
2019-05-03T01:46:15.162Z,0.80
2019-05-03T01:47:47.569Z,1.10
2019-05-03T01:49:19.919Z,0.90
2019-05-03T01:50:52.320Z,0.83
2019-05-03T01:52:24.710Z,0.90
2019-05-03T01:53:57.059Z,0.80
2019-05-03T01:55:42.172Z,0.87
2019-05-03T01:57:03.570Z,1.10
2019-05-03T01:58:35.913Z,1.07
2019-05-03T02:00:08.324Z,0.80
2019-05-03T02:01:42.157Z,1.07
2019-05-03T02:03:14.754Z,1.13
2019-05-03T02:04:47.235Z,1.20
2019-05-03T02:06:19.640Z,0.77
2019-05-03T02:07:52.045Z,0.90
2019-05-03T02:09:24.460Z,1.00
2019-05-03T02:10:56.862Z,0.90
2019-05-03T02:12:29.195Z,1.00
2019-05-03T02:14:01.821Z,1.17
2019-05-03T02:15:34.296Z,1.20
2019-05-03T02:17:06.626Z,1.00
2019-05-03T02:18:39.027Z,1.17
2019-05-03T02:20:12.651Z,0.90
2019-05-03T02:21:45.287Z,1.00
2019-05-03T02:23:17.618Z,1.10
2019-05-03T02:24:50.043Z,1.10
2019-05-03T02:26:22.516Z,1.10
2019-05-03T02:27:54.956Z,0.97
2019-05-03T02:29:27.307Z,0.93
2019-05-03T02:30:59.748Z,1.10
2019-05-03T02:32:33.262Z,1.33
2019-05-03T02:34:05.958Z,1.20
2019-05-03T02:35:38.309Z,1.10
2019-05-03T02:37:13.614Z,1.20
2019-05-03T02:38:44.808Z,1.10
2019-05-03T02:40:20.439Z,1.00
2019-05-03T02:41:58.422Z,1.10
2019-05-03T02:43:26.235Z,1.10
2019-05-03T02:44:58.715Z,1.23
2019-05-03T02:46:31.248Z,1.03
2019-05-03T02:48:06.056Z,1.00
2019-05-03T02:49:37.764Z,1.17
2019-05-03T02:51:10.182Z,1.20
2019-05-03T02:52:42.520Z,0.97
2019-05-03T02:54:15.653Z,1.03
2019-05-03T02:55:48.310Z,0.97
2019-05-03T02:57:20.652Z,1.13
2019-05-03T02:58:55.554Z,1.30
2019-05-03T03:00:27.011Z,1.27
2019-05-03T03:01:59.511Z,1.10
2019-05-03T03:03:31.915Z,1.20
2019-05-03T03:05:05.750Z,1.00
2019-05-03T03:06:38.408Z,1.10
2019-05-03T03:08:10.825Z,1.10
2019-05-03T03:09:45.258Z,1.10
2019-05-03T03:11:17.252Z,1.07
2019-05-03T03:12:49.686Z,1.00
2019-05-03T03:14:22.125Z,1.23
2019-05-03T03:15:55.358Z,1.00
2019-05-03T03:17:27.903Z,0.83
2019-05-03T03:19:00.324Z,1.20
2019-05-03T03:20:35.566Z,1.00
2019-05-03T03:22:06.845Z,0.90
2019-05-03T03:23:39.270Z,1.20
2019-05-03T03:25:11.600Z,1.10
2019-05-03T03:26:47.092Z,0.80
2019-05-03T03:28:18.119Z,1.00
2019-05-03T03:29:51.370Z,0.80
2019-05-03T03:31:27.826Z,0.70
2019-05-03T03:32:58.276Z,0.80
2019-05-03T03:34:30.867Z,0.90
2019-05-03T03:36:31.803Z,0.90
2019-05-03T03:37:37.433Z,0.93
2019-05-03T03:39:09.857Z,0.83
2019-05-03T03:40:42.187Z,0.90
2019-05-03T03:42:16.106Z,1.10
2019-05-03T03:43:48.840Z,0.93
2019-05-03T03:45:21.251Z,1.10
2019-05-03T03:46:56.157Z,1.00
2019-05-03T03:48:27.776Z,0.90
2019-05-03T03:50:00.141Z,0.90
2019-05-03T03:51:34.947Z,1.10
2019-05-03T03:53:06.941Z,0.90
2019-05-03T03:54:39.336Z,1.10
2019-05-03T03:56:11.775Z,1.10
2019-05-03T03:57:46.773Z,1.10
2019-05-03T03:59:18.296Z,1.30
2019-05-03T04:00:50.639Z,1.00
2019-05-03T04:02:26.186Z,1.37
2019-05-03T04:03:57.087Z,1.03
2019-05-03T04:05:29.534Z,1.30
2019-05-03T04:07:02.019Z,1.07
2019-05-03T04:08:36.034Z,1.10
2019-05-03T04:10:08.464Z,1.27
2019-05-03T04:11:40.865Z,1.30
2019-05-03T04:13:15.751Z,1.40
2019-05-03T04:14:47.415Z,1.47
2019-05-03T04:16:21.128Z,1.37
2019-05-03T04:17:57.172Z,1.50
2019-05-03T04:19:29.645Z,1.80
2019-05-03T04:21:02.062Z,1.70
2019-05-03T04:22:36.309Z,2.00
2019-05-03T04:24:26.705Z,1.70
2019-05-03T04:26:08.863Z,2.03
2019-05-03T04:27:41.192Z,1.83
2019-05-03T04:29:15.864Z,2.07
2019-05-03T04:30:47.782Z,2.03
2019-05-03T04:32:20.104Z,2.10
2019-05-03T04:33:52.500Z,2.33
2019-05-03T04:35:26.502Z,2.77
2019-05-03T04:36:58.964Z,2.20
2019-05-03T04:38:31.608Z,2.60
2019-05-03T04:40:06.158Z,2.93
2019-05-03T04:41:38.056Z,2.33
2019-05-03T04:43:10.391Z,2.50
2019-05-03T04:44:45.360Z,3.13
2019-05-03T04:46:16.968Z,2.90
2019-05-03T04:47:49.369Z,2.60
2019-05-03T04:49:21.700Z,3.60
2019-05-03T04:50:54.998Z,2.60
2019-05-03T04:52:27.520Z,2.63
2019-05-03T04:54:00.618Z,3.07
2019-05-03T04:55:35.976Z,3.50
2019-05-03T04:57:07.223Z,3.50
2019-05-03T04:58:39.627Z,3.70
2019-05-03T05:00:12.061Z,3.57
2019-05-03T05:01:46.123Z,4.00
2019-05-03T05:03:18.644Z,3.70
2019-05-03T05:04:51.548Z,3.40
2019-05-03T05:06:25.813Z,3.60
2019-05-03T05:07:58.086Z,3.60
2019-05-03T05:09:30.423Z,3.47
2019-05-03T05:11:05.820Z,3.33
2019-05-03T05:12:37.809Z,3.47
2019-05-03T05:14:10.575Z,3.70
2019-05-03T05:15:45.495Z,3.80
2019-05-03T05:17:17.056Z,4.10
2019-05-03T05:18:49.450Z,3.40
2019-05-03T05:20:21.784Z,4.13
2019-05-03T05:21:55.014Z,4.10
2019-05-03T05:23:27.574Z,4.50
2019-05-03T05:25:00.072Z,4.37
2019-05-03T05:26:32.422Z,4.20
2019-05-03T05:28:05.001Z,4.03
2019-05-03T05:29:37.395Z,4.60
2019-05-03T05:31:09.751Z,3.83
2019-05-03T05:32:42.243Z,4.70
2019-05-03T05:34:15.348Z,4.50
2019-05-03T05:35:47.892Z,4.80
2019-05-03T05:37:20.310Z,4.53
2019-05-03T05:38:55.126Z,4.20
2019-05-03T05:40:27.052Z,5.27
2019-05-03T05:41:59.551Z,4.80
2019-05-03T05:43:31.881Z,5.00
2019-05-03T05:45:04.951Z,4.83
2019-05-03T05:46:37.555Z,5.27
2019-05-03T05:48:10.336Z,4.80
2019-05-03T05:49:44.375Z,5.13
2019-05-03T05:51:17.036Z,5.27
2019-05-03T05:52:49.459Z,5.53
2019-05-03T05:54:21.796Z,5.03
2019-05-03T05:55:54.953Z,5.30
2019-05-03T05:57:27.538Z,5.80
2019-05-03T05:58:59.945Z,6.23
2019-05-03T06:00:32.276Z,5.77
2019-05-03T06:02:04.903Z,5.87
2019-05-03T06:03:37.444Z,5.63
2019-05-03T06:05:09.850Z,6.50
2019-05-03T06:06:42.261Z,6.03
2019-05-03T06:08:16.471Z,6.70
2019-05-03T06:09:48.899Z,6.40
2019-05-03T06:11:21.402Z,7.07
2019-05-03T06:12:54.552Z,6.80
2019-05-03T06:14:27.060Z,6.73
2019-05-03T06:15:59.474Z,6.87
2019-05-03T06:17:31.906Z,6.87
2019-05-03T06:19:04.669Z,7.03
2019-05-03T06:20:37.182Z,7.00
2019-05-03T06:22:09.591Z,6.33
2019-05-03T06:23:42.063Z,7.37
2019-05-03T06:25:16.621Z,7.23
2019-05-03T06:26:48.555Z,6.47
2019-05-03T06:28:21.175Z,6.70
2019-05-03T06:29:54.575Z,7.57
2019-05-03T06:31:27.032Z,8.20
2019-05-03T06:32:59.429Z,7.97
2019-05-03T06:34:31.880Z,8.40
2019-05-03T06:36:04.944Z,8.30
2019-05-03T06:37:37.547Z,8.03
2019-05-03T06:39:10.005Z,8.10
2019-05-03T06:40:44.334Z,8.23
2019-05-03T06:42:19.345Z,7.97
2019-05-03T06:43:50.607Z,8.90
2019-05-03T06:45:24.972Z,8.40
2019-05-03T06:47:01.041Z,8.73
2019-05-03T06:48:32.105Z,9.37
2019-05-03T06:50:05.502Z,8.70
2019-05-03T06:51:40.001Z,8.43
2019-05-03T06:53:13.042Z,9.30
2019-05-03T06:54:46.207Z,9.43
2019-05-03T06:56:19.294Z,8.93
2019-05-03T06:57:54.577Z,9.13
2019-05-03T06:59:27.138Z,8.50
2019-05-03T07:00:59.563Z,9.20
2019-05-03T07:02:31.982Z,10.13
2019-05-03T07:04:05.131Z,9.53
2019-05-03T07:05:37.695Z,10.33
2019-05-03T07:07:10.098Z,10.00
2019-05-03T07:08:45.407Z,9.27
2019-05-03T07:10:16.639Z,10.27
2019-05-03T07:11:49.047Z,10.60
2019-05-03T07:13:21.387Z,9.67
2019-05-03T07:14:54.856Z,10.37
2019-05-03T07:16:27.381Z,9.23
2019-05-03T07:17:59.711Z,9.47
2019-05-03T07:19:32.156Z,10.00
2019-05-03T07:21:04.959Z,10.53
2019-05-03T07:22:37.409Z,10.87
2019-05-03T07:24:09.815Z,10.57
2019-05-03T07:25:42.243Z,11.33
2019-05-03T07:27:15.822Z,10.10
2019-05-03T07:28:50.179Z,11.17
2019-05-03T07:30:24.805Z,11.57
2019-05-03T07:31:56.962Z,10.33
2019-05-03T07:33:29.374Z,10.43
2019-05-03T07:35:01.804Z,11.17
2019-05-03T07:36:35.618Z,11.33
2019-05-03T07:38:08.208Z,11.27
2019-05-03T07:39:40.608Z,11.77
2019-05-03T07:41:14.783Z,12.87
2019-05-03T07:42:47.017Z,11.73
2019-05-03T07:44:19.422Z,12.33
2019-05-03T07:45:51.763Z,12.00
2019-05-03T07:47:24.759Z,11.50
2019-05-03T07:48:57.379Z,11.53
2019-05-03T07:50:32.958Z,12.70
2019-05-03T07:52:05.894Z,12.83
2019-05-03T07:53:38.348Z,12.13
2019-05-03T07:55:10.691Z,13.10
2019-05-03T07:56:44.573Z,12.67
2019-05-03T07:58:17.166Z,13.60
2019-05-03T07:59:49.585Z,13.47
2019-05-03T08:01:22.064Z,12.13
2019-05-03T08:02:54.994Z,13.30
2019-05-03T08:04:27.511Z,12.07
2019-05-03T08:05:59.854Z,12.00
2019-05-03T08:07:32.270Z,11.87
2019-05-03T08:09:04.933Z,12.50
2019-05-03T08:10:37.500Z,13.07
2019-05-03T08:12:09.908Z,12.60
2019-05-03T08:13:44.512Z,11.80
2019-05-03T08:15:16.301Z,11.63
2019-05-03T08:16:48.772Z,13.23
2019-05-03T08:18:21.134Z,12.03
2019-05-03T08:19:55.268Z,13.20
2019-05-03T08:21:27.593Z,12.17
2019-05-03T08:23:00.006Z,12.37
2019-05-03T08:24:34.400Z,11.03
2019-05-03T08:26:06.740Z,11.73
2019-05-03T08:27:39.155Z,11.87
2019-05-03T08:29:16.277Z,11.97
2019-05-03T08:30:45.682Z,12.80
2019-05-03T08:32:18.123Z,11.93
2019-05-03T08:33:50.550Z,12.80
2019-05-03T08:35:24.401Z,12.63
2019-05-03T08:36:56.901Z,11.43
2019-05-03T08:38:29.389Z,11.43
2019-05-03T08:40:01.817Z,12.63
2019-05-03T08:41:35.190Z,12.80
2019-05-03T08:43:07.669Z,12.20
2019-05-03T08:44:40.112Z,10.97
2019-05-03T08:46:12.451Z,12.00
2019-05-03T08:47:45.149Z,12.17
2019-05-03T08:49:17.660Z,10.87
2019-05-03T08:50:50.266Z,12.90
2019-05-03T08:52:24.679Z,12.30
2019-05-03T08:53:58.000Z,11.17
2019-05-03T08:55:31.412Z,11.77
2019-05-03T08:57:06.026Z,10.93
2019-05-03T08:58:38.123Z,10.70
2019-05-03T09:00:10.505Z,11.03
2019-05-03T09:01:43.008Z,11.03
2019-05-03T09:03:15.484Z,10.70
2019-05-03T09:04:47.836Z,10.77
2019-05-03T09:06:20.493Z,11.10
2019-05-03T09:07:54.908Z,10.70
2019-05-03T09:09:27.552Z,10.37
2019-05-03T09:10:59.999Z,11.47
2019-05-03T09:12:34.332Z,11.37
2019-05-03T09:14:06.896Z,10.47
2019-05-03T09:15:39.366Z,11.37
2019-05-03T09:17:11.798Z,11.00
2019-05-03T09:18:45.427Z,10.90
2019-05-03T09:20:17.988Z,12.00
2019-05-03T09:21:50.493Z,10.50
2019-05-03T09:23:25.471Z,11.10
2019-05-03T09:24:57.031Z,10.00
2019-05-03T09:26:29.747Z,9.40
2019-05-03T09:28:02.263Z,9.03
2019-05-03T09:29:43.170Z,7.13
2019-05-03T09:31:08.703Z,6.17
2019-05-03T09:32:41.069Z,6.00
2019-05-03T09:34:14.786Z,5.30
2019-05-03T09:35:47.349Z,4.70
2019-05-03T09:37:19.803Z,4.80
2019-05-03T09:38:52.208Z,5.47
2019-05-03T09:40:24.721Z,5.77
2019-05-03T09:41:57.147Z,5.00
2019-05-03T09:43:30.595Z,5.77
2019-05-03T09:45:04.853Z,5.00
2019-05-03T09:46:37.054Z,5.17
2019-05-03T09:48:09.482Z,4.80
2019-05-03T09:49:41.879Z,5.27
2019-05-03T09:51:14.903Z,4.40
2019-05-03T09:52:47.515Z,4.50
2019-05-03T09:54:19.974Z,4.10
2019-05-03T09:55:52.376Z,4.63
2019-05-03T09:57:24.893Z,4.67
2019-05-03T09:58:57.348Z,4.67
2019-05-03T10:00:29.676Z,4.70
2019-05-03T10:02:02.089Z,3.40
2019-05-03T10:03:36.378Z,2.63
2019-05-03T10:05:08.690Z,2.87
2019-05-03T10:06:41.143Z,2.30
2019-05-03T10:08:15.599Z,2.10
2019-05-03T10:09:47.743Z,2.30
2019-05-03T10:11:20.252Z,2.10
2019-05-03T10:12:52.603Z,2.23
2019-05-03T10:14:24.928Z,2.30
2019-05-03T10:15:57.323Z,1.90
2019-05-03T10:17:29.744Z,2.83
2019-05-03T10:19:02.183Z,2.93
2019-05-03T10:20:35.826Z,3.50
2019-05-03T10:22:08.228Z,3.20
2019-05-03T10:23:40.590Z,3.60
2019-05-03T10:25:12.994Z,3.53
2019-05-03T10:26:45.634Z,3.13
2019-05-03T10:28:18.112Z,2.83
2019-05-03T10:29:50.462Z,3.30
2019-05-03T10:31:22.932Z,2.83
2019-05-03T10:32:55.356Z,2.50
2019-05-03T10:34:27.755Z,2.63
2019-05-03T10:36:00.174Z,3.20
2019-05-03T10:37:32.579Z,2.77
2019-05-03T10:39:05.625Z,2.50
2019-05-03T10:40:38.544Z,2.13
2019-05-03T10:42:11.107Z,1.87
2019-05-03T10:43:45.107Z,2.13
2019-05-03T10:45:18.763Z,2.43
2019-05-03T10:46:51.097Z,2.37
2019-05-03T10:48:24.883Z,2.80
2019-05-03T10:49:57.514Z,2.10
2019-05-03T10:51:29.849Z,2.27
2019-05-03T10:53:02.357Z,2.03
2019-05-03T10:54:35.831Z,2.30
2019-05-03T10:56:08.747Z,2.17
2019-05-03T10:57:41.206Z,2.73
2019-05-03T10:59:13.807Z,2.63
2019-05-03T11:00:52.782Z,2.40
2019-05-03T11:02:20.170Z,2.20
2019-05-03T11:03:54.434Z,2.80
2019-05-03T11:05:26.555Z,2.93
2019-05-03T11:06:58.921Z,2.43
2019-05-03T11:08:31.255Z,2.60
2019-05-03T11:10:05.276Z,2.63
2019-05-03T11:11:37.811Z,3.00
2019-05-03T11:13:10.807Z,3.30
2019-05-03T11:14:45.405Z,2.77
2019-05-03T11:16:17.384Z,2.80
2019-05-03T11:17:49.801Z,2.70
2019-05-03T11:19:22.220Z,2.37
2019-05-03T11:20:55.784Z,2.40
2019-05-03T11:22:28.175Z,2.40
2019-05-03T11:24:00.632Z,2.17
2019-05-03T11:25:34.479Z,2.20
2019-05-03T11:27:07.071Z,2.00
2019-05-03T11:28:39.475Z,1.83
2019-05-03T11:30:13.155Z,1.80
2019-05-03T11:31:45.591Z,1.70
2019-05-03T11:33:17.997Z,1.70
2019-05-03T11:34:50.485Z,1.80
2019-05-03T11:36:22.980Z,1.73
2019-05-03T11:37:55.376Z,1.57
2019-05-03T11:39:27.815Z,1.80
2019-05-03T11:41:00.243Z,1.73
2019-05-03T11:42:32.712Z,1.70
2019-05-03T11:44:05.123Z,1.70
2019-05-03T11:45:37.544Z,2.00
2019-05-03T11:47:09.879Z,1.60
2019-05-03T11:48:42.366Z,1.10
2019-05-03T11:50:14.996Z,1.20
2019-05-03T11:51:47.484Z,1.20
2019-05-03T11:53:19.953Z,1.20
2019-05-03T11:54:52.354Z,1.23
2019-05-03T11:56:24.991Z,1.20
2019-05-03T11:57:57.574Z,0.97
2019-05-03T11:59:30.032Z,1.10
2019-05-03T12:01:14.905Z,1.40
2019-05-03T12:02:36.522Z,1.50
2019-05-03T12:04:08.935Z,1.40
2019-05-03T12:05:41.537Z,1.87
2019-05-03T12:07:15.323Z,2.33
2019-05-03T12:08:48.327Z,2.57
2019-05-03T12:10:37.487Z,2.00
2019-05-03T12:11:55.349Z,2.00
2019-05-03T12:13:27.907Z,2.47
2019-05-03T12:15:00.496Z,2.27
2019-05-03T12:17:07.772Z,2.73
2019-05-03T12:18:07.929Z,2.50
2019-05-03T12:19:41.990Z,2.53
2019-05-03T12:21:18.061Z,2.40
2019-05-03T12:22:50.135Z,2.80
2019-05-03T12:24:25.662Z,2.40
2019-05-03T12:25:58.013Z,2.60
2019-05-03T12:27:31.163Z,3.17
2019-05-03T12:29:07.169Z,2.67
2019-05-03T12:30:44.915Z,3.23
2019-05-03T12:32:17.682Z,2.90
2019-05-03T12:33:55.073Z,2.75
2019-05-03T12:35:27.482Z,3.87
2019-05-03T12:37:00.830Z,3.30
2019-05-03T12:38:34.921Z,3.60
2019-05-03T12:40:07.635Z,3.90
2019-05-03T12:41:41.797Z,4.60
2019-05-03T12:43:15.036Z,4.67
2019-05-03T12:44:50.376Z,5.03
2019-05-03T12:46:23.201Z,5.23
2019-05-03T12:49:48.268Z,5.77
2019-05-03T12:51:21.910Z,5.57
2019-05-03T12:52:55.520Z,5.93
2019-05-03T12:54:28.692Z,6.87
2019-05-03T12:56:11.792Z,6.37
2019-05-03T12:57:37.583Z,7.07
2019-05-03T12:59:10.776Z,7.50
2019-05-03T13:00:47.962Z,8.07
2019-05-03T13:02:17.479Z,8.47
2019-05-03T13:03:52.225Z,7.43
2019-05-03T13:05:24.961Z,8.53
2019-05-03T13:06:57.588Z,7.50
2019-05-03T13:08:35.009Z,7.60
2019-05-03T13:10:23.314Z,7.93
2019-05-03T13:11:58.759Z,6.67
2019-05-03T13:13:29.222Z,7.13
2019-05-03T13:15:02.439Z,6.83
2019-05-03T13:16:35.408Z,6.93
2019-05-03T13:18:08.300Z,6.33
2019-05-03T13:19:41.845Z,5.93
2019-05-03T13:21:14.367Z,5.80
2019-05-03T13:22:47.179Z,5.30
2019-05-03T13:24:23.337Z,5.33
2019-05-03T13:25:58.021Z,5.73
2019-05-03T13:27:35.003Z,5.87
2019-05-03T13:29:08.011Z,5.10
2019-05-03T13:30:40.511Z,4.60
2019-05-03T13:32:15.356Z,4.90
2019-05-03T13:33:48.331Z,4.00
2019-05-03T13:35:23.157Z,3.87
2019-05-03T13:37:00.596Z,3.50
2019-05-03T13:38:34.998Z,3.10
2019-05-03T13:40:08.012Z,3.73
2019-05-03T13:41:45.356Z,2.80
2019-05-03T13:43:17.515Z,3.27
2019-05-03T13:44:52.867Z,3.00
2019-05-03T13:46:25.522Z,2.70
2019-05-03T13:47:58.239Z,2.60
2019-05-03T13:49:35.234Z,3.23
2019-05-03T13:51:10.500Z,2.60
2019-05-03T13:52:46.050Z,2.30
2019-05-03T13:54:18.471Z,2.43
2019-05-03T13:55:51.148Z,2.80
2019-05-03T13:57:27.373Z,2.77
2019-05-03T13:59:05.869Z,3.10
2019-05-03T14:00:37.308Z,3.33
2019-05-03T14:02:15.064Z,3.63
2019-05-03T14:03:45.210Z,3.03
2019-05-03T14:05:18.176Z,3.73
2019-05-03T14:06:50.655Z,4.17
2019-05-03T14:08:26.259Z,3.17
2019-05-03T14:10:02.035Z,3.73
2019-05-03T14:11:35.353Z,3.87
2019-05-03T14:13:10.927Z,3.67
2019-05-03T14:16:21.449Z,3.43
2019-05-03T14:17:54.740Z,3.80
2019-05-03T14:19:28.039Z,3.93
2019-05-03T14:21:00.639Z,5.80
2019-05-03T14:22:33.072Z,5.30
2019-05-03T14:24:08.512Z,5.63
2019-05-03T14:25:40.918Z,5.60
2019-05-03T14:27:17.133Z,6.23
2019-05-03T14:28:47.791Z,6.50
2019-05-03T14:30:20.382Z,6.73
2019-05-03T14:31:54.543Z,5.97
2019-05-03T14:33:28.422Z,5.00
2019-05-03T14:35:00.966Z,6.20
2019-05-03T14:36:35.653Z,5.60
2019-05-03T14:38:07.487Z,6.20
2019-05-03T14:39:40.736Z,6.47
2019-05-03T14:41:15.096Z,6.60
2019-05-03T14:42:47.599Z,5.87
2019-05-03T14:44:20.076Z,6.40
2019-05-03T14:45:54.821Z,6.37
2019-05-03T14:47:26.872Z,6.50
2019-05-03T14:48:59.665Z,6.57
2019-05-03T14:50:32.011Z,7.07
2019-05-03T14:52:05.562Z,7.17
2019-05-03T14:53:38.212Z,6.80
2019-05-03T14:55:10.860Z,6.10
2019-05-03T14:56:45.356Z,6.67
2019-05-03T14:58:17.729Z,6.47
2019-05-03T14:59:50.399Z,5.50
2019-05-03T15:01:29.943Z,5.77
2019-05-03T15:02:58.035Z,5.77
2019-05-03T15:04:30.597Z,5.30
2019-05-03T15:06:05.177Z,5.07
2019-05-03T15:07:37.167Z,5.93
2019-05-03T15:09:09.503Z,5.70
2019-05-03T15:10:41.923Z,5.90
2019-05-03T15:12:14.328Z,5.30
2019-05-03T15:13:46.663Z,5.20
2019-05-03T15:15:19.883Z,5.87
2019-05-03T15:16:52.240Z,5.50
2019-05-03T15:18:25.555Z,6.30
2019-05-03T15:19:59.800Z,5.47
2019-05-03T15:21:32.227Z,5.70
2019-05-03T15:23:05.593Z,5.37
2019-05-03T15:24:38.043Z,6.07
2019-05-03T15:26:10.601Z,5.83
2019-05-03T15:27:44.845Z,5.67
2019-05-03T15:29:17.233Z,5.93
2019-05-03T15:30:49.780Z,6.10
2019-05-03T15:32:24.314Z,5.83
2019-05-03T15:33:56.638Z,5.80
2019-05-03T15:35:29.183Z,5.10
2019-05-03T15:37:01.598Z,5.63
2019-05-03T15:38:34.575Z,5.77
2019-05-03T15:40:07.253Z,6.00
2019-05-03T15:41:39.798Z,5.17
2019-05-03T15:43:12.358Z,5.60
2019-05-03T15:44:45.336Z,5.37
2019-05-03T15:46:17.760Z,5.50
2019-05-03T15:47:50.478Z,5.43
2019-05-03T15:49:25.540Z,5.33
2019-05-03T15:50:57.062Z,5.20
2019-05-03T15:52:29.475Z,5.47
2019-05-03T15:54:01.941Z,5.50
2019-05-03T15:55:34.339Z,5.40
2019-05-03T15:57:06.721Z,5.40
2019-05-03T15:58:39.985Z,5.60
2019-05-03T16:00:12.310Z,5.37
2019-05-03T16:01:45.326Z,6.37
2019-05-03T16:03:18.029Z,6.40
2019-05-03T16:04:51.524Z,5.40
2019-05-03T16:06:24.812Z,5.90
2019-05-03T16:07:59.035Z,5.70
2019-05-03T16:09:31.435Z,5.77
2019-05-03T16:11:05.391Z,5.80
2019-05-03T16:12:37.954Z,5.60
2019-05-03T16:14:10.373Z,6.23
2019-05-03T16:15:44.423Z,5.83
2019-05-03T16:17:17.072Z,6.10
2019-05-03T16:18:49.498Z,6.20
2019-05-03T16:20:21.933Z,6.43
2019-05-03T16:21:54.899Z,6.43
2019-05-03T16:23:34.773Z,7.17
2019-05-03T16:25:06.294Z,6.47
2019-05-03T16:26:38.147Z,6.30
2019-05-03T16:28:10.575Z,6.60
2019-05-03T16:29:44.516Z,6.83
2019-05-03T16:31:17.428Z,6.30
2019-05-03T16:32:49.767Z,6.03
2019-05-03T16:34:22.159Z,6.97
2019-05-03T16:35:54.994Z,6.43
2019-05-03T16:37:27.875Z,6.43
2019-05-03T16:39:00.300Z,6.70
2019-05-03T16:40:34.463Z,6.83
2019-05-03T16:42:07.036Z,6.90
2019-05-03T16:43:39.575Z,6.53
2019-05-03T16:45:11.972Z,6.80
2019-05-03T16:46:44.935Z,6.27
2019-05-03T16:48:18.465Z,6.73
2019-05-03T16:49:51.099Z,7.37
2019-05-03T16:51:25.357Z,6.47
2019-05-03T16:52:57.843Z,5.57
2019-05-03T16:54:30.338Z,6.40
2019-05-03T16:56:03.520Z,7.20
2019-05-03T16:57:36.061Z,6.60
2019-05-03T16:59:08.563Z,7.13
2019-05-03T17:00:40.980Z,6.47
2019-05-03T17:02:14.661Z,6.97
2019-05-03T17:03:47.823Z,7.03
2019-05-03T17:05:21.836Z,6.57
2019-05-03T17:06:55.305Z,6.33
2019-05-03T17:08:27.811Z,6.33
2019-05-03T17:10:00.196Z,6.53
2019-05-03T17:11:34.580Z,6.80
2019-05-03T17:13:06.715Z,6.17
2019-05-03T17:14:39.123Z,6.67
2019-05-03T17:16:11.480Z,7.23
2019-05-03T17:17:45.128Z,6.13
2019-05-03T17:19:17.711Z,6.40
2019-05-03T17:20:50.071Z,6.07
2019-05-03T17:22:22.466Z,6.23
2019-05-03T17:23:54.818Z,6.90
2019-05-03T17:25:27.154Z,5.97
2019-05-03T17:26:59.664Z,7.53
2019-05-03T17:28:32.127Z,6.53
2019-05-03T17:30:04.666Z,6.03
2019-05-03T17:31:37.086Z,6.93
2019-05-03T17:33:09.544Z,6.83
2019-05-03T17:34:41.874Z,6.93
2019-05-03T17:36:14.298Z,7.80
2019-05-03T17:37:46.775Z,7.37
2019-05-03T17:39:19.110Z,7.20
2019-05-03T17:40:51.478Z,6.77
2019-05-03T17:42:25.329Z,7.00
2019-05-03T17:43:57.824Z,7.00
2019-05-03T17:45:30.402Z,7.40
2019-05-03T17:47:04.309Z,7.50
2019-05-03T17:48:36.882Z,6.87
2019-05-03T17:50:09.212Z,7.40
2019-05-03T17:51:41.721Z,6.83
2019-05-03T17:53:14.726Z,6.67
2019-05-03T17:54:47.311Z,6.73
2019-05-03T17:56:19.718Z,7.27
2019-05-03T17:57:52.092Z,7.20
2019-05-03T17:59:24.515Z,7.20
2019-05-03T18:00:56.910Z,6.90
2019-05-03T18:02:29.873Z,7.53
2019-05-03T18:04:06.608Z,6.73
2019-05-03T18:05:37.664Z,7.60
2019-05-03T18:07:10.333Z,7.33
2019-05-03T18:08:44.527Z,6.53
2019-05-03T18:10:17.109Z,6.80
2019-05-03T18:11:49.637Z,6.67
2019-05-03T18:13:22.426Z,6.77
2019-05-03T18:14:55.499Z,7.20
2019-05-03T18:16:27.941Z,7.43
2019-05-03T18:18:00.358Z,6.57
2019-05-03T18:19:34.346Z,7.20
2019-05-03T18:21:08.257Z,8.20
2019-05-03T18:22:47.663Z,7.63
2019-05-03T18:24:19.995Z,8.10
2019-05-03T18:25:52.415Z,7.13
2019-05-03T18:27:25.198Z,8.00
2019-05-03T18:29:00.095Z,7.50
2019-05-03T18:30:31.829Z,7.97
2019-05-03T18:32:05.488Z,7.97
2019-05-03T18:33:38.410Z,7.53
2019-05-03T18:35:11.319Z,8.20
2019-05-03T18:36:45.022Z,7.97
2019-05-03T18:38:17.917Z,8.10
2019-05-03T18:39:50.849Z,8.20
2019-05-03T18:41:25.464Z,7.03
2019-05-03T18:42:58.335Z,9.00
2019-05-03T18:44:34.626Z,7.90
2019-05-03T18:46:14.300Z,8.13
2019-05-03T18:47:46.951Z,8.53
2019-05-03T18:49:19.580Z,8.70
2019-05-03T18:50:54.691Z,8.33
2019-05-03T18:52:26.093Z,8.37
2019-05-03T18:53:58.625Z,8.17
2019-05-03T18:55:31.132Z,9.17
2019-05-03T18:57:05.074Z,8.33
2019-05-03T18:58:37.659Z,8.70
2019-05-03T19:00:10.053Z,8.53
2019-05-03T19:01:42.790Z,7.67
2019-05-03T19:03:15.335Z,8.93
2019-05-03T19:04:47.860Z,8.80
2019-05-03T19:06:20.398Z,8.57
2019-05-03T19:07:54.579Z,8.57
2019-05-03T19:09:27.165Z,8.93
2019-05-03T19:10:59.688Z,9.00
2019-05-03T19:12:32.211Z,8.43
2019-05-03T19:14:04.810Z,8.53
2019-05-03T19:15:37.392Z,9.87
2019-05-03T19:17:09.890Z,9.43
2019-05-03T19:18:45.396Z,8.43
2019-05-03T19:20:18.053Z,9.50
2019-05-03T19:21:50.596Z,9.03
2019-05-03T19:23:24.760Z,10.17
2019-05-03T19:24:57.080Z,9.57
2019-05-03T19:26:29.569Z,8.93
2019-05-03T19:28:01.936Z,8.90
2019-05-03T19:29:34.454Z,9.40
2019-05-03T19:31:07.076Z,9.60
2019-05-03T19:32:39.618Z,9.63
2019-05-03T19:34:12.140Z,9.73
2019-05-03T19:35:45.101Z,9.23
2019-05-03T19:37:17.527Z,8.90
2019-05-03T19:38:54.523Z,9.77
2019-05-03T19:40:26.763Z,8.67
2019-05-03T19:42:01.291Z,10.10
2019-05-03T19:43:35.629Z,8.83
2019-05-03T19:45:07.854Z,8.93
2019-05-03T19:46:40.358Z,9.30
2019-05-03T19:48:14.738Z,9.37
2019-05-03T19:49:48.146Z,9.17
2019-05-03T19:51:20.567Z,9.20
2019-05-03T19:52:54.570Z,9.03
2019-05-03T19:54:27.459Z,9.67
2019-05-03T19:55:59.856Z,9.10
2019-05-03T19:57:32.414Z,9.97
2019-05-03T19:59:08.006Z,9.20
2019-05-03T20:00:40.387Z,9.30
2019-05-03T20:02:15.333Z,8.93
2019-05-03T20:03:47.736Z,8.93
2019-05-03T20:05:22.140Z,8.90
2019-05-03T20:07:07.836Z,8.80
2019-05-03T20:08:40.411Z,10.07
2019-05-03T20:10:14.704Z,9.53
2019-05-03T20:11:46.935Z,9.10
2019-05-03T20:13:31.392Z,8.63
2019-05-03T20:14:54.633Z,9.77
2019-05-03T20:16:27.175Z,8.60
2019-05-03T20:18:00.393Z,9.37
2019-05-03T20:19:36.180Z,8.87
2019-05-03T20:21:08.793Z,8.80
2019-05-03T20:22:41.484Z,9.10
2019-05-03T20:24:14.861Z,9.00
2019-05-03T20:25:47.459Z,8.87
2019-05-03T20:27:20.117Z,9.70
2019-05-03T20:28:55.777Z,8.93
2019-05-03T20:30:28.109Z,9.10
2019-05-03T20:32:02.080Z,9.17
2019-05-03T20:33:35.262Z,9.73
2019-05-03T20:35:16.596Z,9.07
2019-05-03T20:36:42.015Z,8.77
2019-05-03T20:38:15.228Z,9.10
2019-05-03T20:39:51.069Z,8.93
2019-05-03T20:41:25.495Z,9.37